createdAt,value
2023-04-18T00:01:40.473Z,11.26
2023-04-18T00:04:08.609Z,11.04
2023-04-18T00:06:36.845Z,10.67
2023-04-18T00:09:06.218Z,10.87
2023-04-18T00:11:34.571Z,10.79
2023-04-18T00:14:03.246Z,10.75
2023-04-18T00:16:33.110Z,10.81
2023-04-18T00:19:02.255Z,10.62
2023-04-18T00:21:30.117Z,10.57
2023-04-18T00:23:57.963Z,10.61
2023-04-18T00:26:27.137Z,10.57
2023-04-18T00:28:55.215Z,10.60
2023-04-18T00:31:23.107Z,10.52
2023-04-18T00:33:51.861Z,10.32
2023-04-18T00:36:19.656Z,10.39
2023-04-18T00:38:47.476Z,10.41
2023-04-18T00:41:16.510Z,10.27
2023-04-18T00:43:45.650Z,9.99
2023-04-18T00:46:13.492Z,10.15
2023-04-18T00:48:41.716Z,10.49
2023-04-18T00:51:10.753Z,10.68
2023-04-18T00:53:38.859Z,10.56
2023-04-18T00:56:07.599Z,9.93
2023-04-18T00:58:35.864Z,10.17
2023-04-18T01:01:05.142Z,9.92
2023-04-18T01:03:34.654Z,10.32
2023-04-18T01:06:02.704Z,10.36
2023-04-18T01:08:30.564Z,10.48
2023-04-18T01:10:59.434Z,10.63
2023-04-18T01:13:27.196Z,10.57
2023-04-18T01:15:55.687Z,11.13
2023-04-18T01:18:25.471Z,10.99
2023-04-18T01:20:56.920Z,10.35
2023-04-18T01:23:24.847Z,10.28
2023-04-18T01:25:53.988Z,10.39
2023-04-18T01:28:22.726Z,10.44
2023-04-18T01:30:50.527Z,10.38
2023-04-18T01:33:18.616Z,10.38
2023-04-18T01:35:48.176Z,10.15
2023-04-18T01:38:15.905Z,10.22
2023-04-18T01:40:44.077Z,10.31
2023-04-18T01:43:13.342Z,10.03
2023-04-18T01:45:41.185Z,9.98
2023-04-18T01:48:09.983Z,10.01
2023-04-18T01:50:37.811Z,10.02
2023-04-18T01:53:05.698Z,10.13
2023-04-18T01:55:33.527Z,10.21
2023-04-18T01:58:01.334Z,9.94
2023-04-18T02:00:30.631Z,9.82
2023-04-18T02:02:59.681Z,9.60
2023-04-18T02:05:28.082Z,9.34
2023-04-18T02:07:56.006Z,9.67
2023-04-18T02:10:24.045Z,9.67
2023-04-18T02:12:51.849Z,9.97
2023-04-18T02:15:20.301Z,9.73
2023-04-18T02:17:50.530Z,9.63
2023-04-18T02:20:18.404Z,10.10
2023-04-18T02:22:46.306Z,10.29
2023-04-18T02:25:14.267Z,10.13
2023-04-18T02:27:42.033Z,10.18
2023-04-18T02:30:10.816Z,10.01
2023-04-18T02:32:38.664Z,10.22
2023-04-18T02:35:08.667Z,10.06
2023-04-18T02:37:36.476Z,9.37
2023-04-18T02:40:05.754Z,9.99
2023-04-18T02:42:33.734Z,9.85
2023-04-18T02:45:02.726Z,9.60
2023-04-18T02:47:33.495Z,9.23
2023-04-18T02:50:11.011Z,9.73
2023-04-18T02:52:38.938Z,9.49
2023-04-18T02:55:07.416Z,9.37
2023-04-18T02:57:40.325Z,9.50
2023-04-18T03:00:31.388Z,9.76
2023-04-18T03:03:14.130Z,9.64
2023-04-18T03:05:54.450Z,10.04
2023-04-18T03:08:22.356Z,9.46
2023-04-18T03:10:50.251Z,9.50
2023-04-18T03:13:21.198Z,10.13
2023-04-18T03:15:49.386Z,10.33
2023-04-18T03:18:17.475Z,10.20
2023-04-18T03:20:45.825Z,10.30
2023-04-18T03:23:15.079Z,10.01
2023-04-18T03:25:43.127Z,10.04
2023-04-18T03:28:11.242Z,10.01
2023-04-18T03:30:39.115Z,10.15
2023-04-18T03:33:07.499Z,9.82
2023-04-18T03:35:35.860Z,9.74
2023-04-18T03:38:03.749Z,9.67
2023-04-18T03:40:37.781Z,9.65
2023-04-18T03:43:12.232Z,9.79
2023-04-18T03:45:40.273Z,9.95
2023-04-18T03:48:08.233Z,9.73
2023-04-18T03:50:41.327Z,9.78
2023-04-18T03:53:11.261Z,9.77
2023-04-18T03:55:43.457Z,9.95
2023-04-18T03:58:13.831Z,9.85
2023-04-18T04:00:42.156Z,9.77
2023-04-18T04:03:12.033Z,9.82
2023-04-18T04:05:41.132Z,9.71
2023-04-18T04:08:09.110Z,9.96
2023-04-18T04:10:37.151Z,10.20
2023-04-18T04:13:06.537Z,10.16
2023-04-18T04:15:38.447Z,10.13
2023-04-18T04:18:09.054Z,10.32
2023-04-18T04:20:40.214Z,9.95
2023-04-18T04:23:13.369Z,9.90
2023-04-18T04:25:45.445Z,9.75
2023-04-18T04:28:26.329Z,9.22
2023-04-18T04:30:59.570Z,8.52
2023-04-18T04:33:29.372Z,8.25
2023-04-18T04:36:01.861Z,8.12
2023-04-18T04:38:32.247Z,7.84
2023-04-18T04:41:00.354Z,7.86
2023-04-18T04:43:30.814Z,7.74
2023-04-18T04:45:59.281Z,7.73
2023-04-18T04:48:27.153Z,7.66
2023-04-18T04:50:57.766Z,7.69
2023-04-18T04:53:30.219Z,7.63
2023-04-18T04:55:59.417Z,7.55
2023-04-18T04:58:28.157Z,7.47
2023-04-18T05:01:12.846Z,7.56
2023-04-18T05:03:41.836Z,7.59
2023-04-18T05:06:09.949Z,7.72
2023-04-18T05:08:37.828Z,7.69
2023-04-18T05:11:05.704Z,7.74
2023-04-18T05:13:33.453Z,7.78
2023-04-18T05:16:01.246Z,7.80
2023-04-18T05:18:30.580Z,7.71
2023-04-18T05:20:59.000Z,7.74
2023-04-18T05:23:26.866Z,7.80
2023-04-18T05:25:54.716Z,7.79
2023-04-18T05:28:24.518Z,7.83
2023-04-18T05:30:52.477Z,7.78
2023-04-18T05:33:20.309Z,7.68
2023-04-18T05:35:49.525Z,7.91
2023-04-18T05:38:17.314Z,7.96
2023-04-18T05:40:45.083Z,8.12
2023-04-18T05:43:12.929Z,8.18
2023-04-18T05:45:40.813Z,8.23
2023-04-18T05:48:08.668Z,8.29
2023-04-18T05:50:36.552Z,8.32
2023-04-18T05:53:05.709Z,8.27
2023-04-18T05:55:34.387Z,8.31
2023-04-18T05:58:02.204Z,8.46
2023-04-18T06:00:30.039Z,8.42
2023-04-18T06:02:57.981Z,8.49
2023-04-18T06:05:26.288Z,8.55
2023-04-18T06:07:54.336Z,8.69
2023-04-18T06:10:23.568Z,8.87
2023-04-18T06:12:51.566Z,8.81
2023-04-18T06:15:19.435Z,8.83
2023-04-18T06:17:47.248Z,9.08
2023-04-18T06:20:15.131Z,9.27
2023-04-18T06:22:42.919Z,9.29
2023-04-18T06:25:11.044Z,9.41
2023-04-18T06:27:40.289Z,9.40
2023-04-18T06:30:09.181Z,9.17
2023-04-18T06:32:37.092Z,9.32
2023-04-18T06:35:05.545Z,9.37
2023-04-18T06:37:33.326Z,9.51
2023-04-18T06:40:01.242Z,9.44
2023-04-18T06:42:29.104Z,9.51
2023-04-18T06:44:58.294Z,9.48
2023-04-18T06:47:29.015Z,9.43
2023-04-18T06:49:56.898Z,9.47
2023-04-18T06:52:24.769Z,9.37
2023-04-18T06:54:52.587Z,9.55
2023-04-18T06:57:20.490Z,9.62
2023-04-18T06:59:48.306Z,9.74
2023-04-18T07:02:17.654Z,9.89
2023-04-18T07:04:45.536Z,9.99
2023-04-18T07:07:13.388Z,10.21
2023-04-18T07:09:41.198Z,10.36
2023-04-18T07:12:09.080Z,10.49
2023-04-18T07:14:36.979Z,10.01
2023-04-18T07:17:05.106Z,10.06
2023-04-18T07:19:34.513Z,9.96
2023-04-18T07:22:02.366Z,10.10
2023-04-18T07:24:30.640Z,9.94
2023-04-18T07:26:58.496Z,9.97
2023-04-18T07:29:26.264Z,9.97
2023-04-18T07:31:54.088Z,9.90
2023-04-18T07:34:23.053Z,10.03
2023-04-18T07:36:52.473Z,10.10
2023-04-18T07:39:20.273Z,10.24
2023-04-18T07:41:48.142Z,10.27
2023-04-18T07:44:16.300Z,10.54
2023-04-18T07:46:44.314Z,10.51
2023-04-18T07:49:12.388Z,10.49
2023-04-18T07:51:40.492Z,10.51
2023-04-18T07:54:11.061Z,10.77
2023-04-18T07:56:38.999Z,10.87
2023-04-18T07:59:06.860Z,11.28
2023-04-18T08:01:35.192Z,11.56
2023-04-18T08:04:03.152Z,12.23
2023-04-18T08:06:31.137Z,12.85
2023-04-18T08:09:04.095Z,13.28
2023-04-18T08:11:34.009Z,13.22
2023-04-18T08:14:02.196Z,12.79
2023-04-18T08:16:30.167Z,12.45
2023-04-18T08:18:58.026Z,12.28
2023-04-18T08:21:26.348Z,12.06
2023-04-18T08:23:54.100Z,12.32
2023-04-18T08:26:21.910Z,12.36
2023-04-18T08:28:51.684Z,11.88
2023-04-18T08:31:19.588Z,11.92
2023-04-18T08:33:47.460Z,12.02
2023-04-18T08:36:15.276Z,12.43
2023-04-18T08:38:43.090Z,12.73
2023-04-18T08:41:10.857Z,12.37
2023-04-18T08:43:39.005Z,12.13
2023-04-18T08:46:09.129Z,12.35
2023-04-18T08:48:36.966Z,12.23
2023-04-18T08:51:05.351Z,11.92
2023-04-18T08:53:35.243Z,11.38
2023-04-18T08:56:05.448Z,10.70
2023-04-18T08:58:34.241Z,10.30
2023-04-18T09:01:02.418Z,9.98
2023-04-18T09:03:39.762Z,10.03
2023-04-18T09:06:09.380Z,9.88
2023-04-18T09:08:37.296Z,9.89
2023-04-18T09:11:25.992Z,9.88
2023-04-18T09:13:56.268Z,9.87
2023-04-18T09:16:24.957Z,9.85
2023-04-18T09:19:18.432Z,9.59
2023-04-18T09:21:48.800Z,9.60
2023-04-18T09:24:20.771Z,9.64
2023-04-18T09:26:50.751Z,9.93
2023-04-18T09:29:22.302Z,10.16
2023-04-18T09:31:57.662Z,10.22
2023-04-18T09:34:27.512Z,10.52
2023-04-18T09:37:09.905Z,10.86
2023-04-18T09:39:39.657Z,10.82
2023-04-18T09:42:07.935Z,10.81
2023-04-18T09:44:35.773Z,10.78
2023-04-18T09:47:03.937Z,10.66
2023-04-18T09:49:33.777Z,10.76
2023-04-18T09:52:06.521Z,11.15
2023-04-18T09:54:39.466Z,11.34
2023-04-18T09:57:11.961Z,11.20
2023-04-18T09:59:47.604Z,11.09
2023-04-18T10:02:21.188Z,11.62
2023-04-18T10:04:51.984Z,12.03
2023-04-18T10:07:20.380Z,12.16
2023-04-18T10:09:48.706Z,12.15
2023-04-18T10:12:18.259Z,12.29
2023-04-18T10:14:46.704Z,12.34
2023-04-18T10:17:16.053Z,12.62
2023-04-18T10:19:46.236Z,12.82
2023-04-18T10:22:15.389Z,12.94
2023-04-18T10:24:54.151Z,13.41
2023-04-18T10:27:59.417Z,12.93
2023-04-18T10:30:53.885Z,13.22
2023-04-18T10:33:30.803Z,13.47
2023-04-18T10:36:20.431Z,13.67
2023-04-18T10:38:51.177Z,13.41
2023-04-18T10:41:23.965Z,12.79
2023-04-18T10:44:25.708Z,12.42
2023-04-18T10:47:24.027Z,12.57
2023-04-18T10:50:01.011Z,12.40
2023-04-18T10:52:30.281Z,12.57
2023-04-18T10:55:13.993Z,12.53
2023-04-18T10:57:44.012Z,12.79
2023-04-18T11:00:14.029Z,12.79
2023-04-18T11:02:48.735Z,12.85
2023-04-18T11:05:21.747Z,12.72
2023-04-18T11:07:49.750Z,12.71
2023-04-18T11:10:21.035Z,12.64
2023-04-18T11:12:49.175Z,12.89
2023-04-18T11:15:21.378Z,12.36
2023-04-18T11:17:57.992Z,12.02
2023-04-18T11:20:26.917Z,12.04
2023-04-18T11:22:56.564Z,11.99
2023-04-18T11:25:27.762Z,11.66
2023-04-18T11:27:56.188Z,11.67
2023-04-18T11:30:24.327Z,11.60
2023-04-18T11:32:56.065Z,11.98
2023-04-18T11:35:24.020Z,12.22
2023-04-18T11:37:52.083Z,12.85
2023-04-18T11:40:19.884Z,13.08
2023-04-18T11:42:49.121Z,12.74
2023-04-18T11:45:17.075Z,12.38
2023-04-18T11:47:52.091Z,12.13
2023-04-18T11:50:19.962Z,12.04
2023-04-18T11:52:51.620Z,12.17
2023-04-18T11:55:21.822Z,11.93
2023-04-18T11:57:55.435Z,12.41
2023-04-18T12:00:32.807Z,12.76
2023-04-18T12:03:02.200Z,13.18
2023-04-18T12:05:31.967Z,13.44
2023-04-18T12:08:06.900Z,13.88
2023-04-18T12:10:35.845Z,13.54
2023-04-18T12:13:08.058Z,13.39
2023-04-18T12:15:40.322Z,13.72
2023-04-18T12:18:09.302Z,13.80
2023-04-18T12:20:38.824Z,13.62
2023-04-18T12:23:07.793Z,13.36
2023-04-18T12:25:36.375Z,13.75
2023-04-18T12:28:16.764Z,13.58
2023-04-18T12:30:44.598Z,13.27
2023-04-18T12:33:12.531Z,12.66
2023-04-18T12:35:40.423Z,13.06
2023-04-18T12:38:08.208Z,13.12
2023-04-18T12:40:36.052Z,13.19
2023-04-18T12:43:05.195Z,13.21
2023-04-18T12:45:33.016Z,12.93
2023-04-18T12:48:00.977Z,13.06
2023-04-18T12:50:28.844Z,12.93
2023-04-18T12:53:00.760Z,13.02
2023-04-18T12:55:29.200Z,13.12
2023-04-18T12:57:58.058Z,13.43
2023-04-18T13:00:30.385Z,13.44
2023-04-18T13:02:58.911Z,13.47
2023-04-18T13:05:32.473Z,13.06
2023-04-18T13:10:32.721Z,13.24
2023-04-18T13:13:00.494Z,12.98
2023-04-18T13:15:29.785Z,12.87
2023-04-18T13:17:57.646Z,13.11
2023-04-18T13:20:25.464Z,13.19
2023-04-18T13:22:53.288Z,12.49
2023-04-18T13:25:21.669Z,12.41
2023-04-18T13:27:50.383Z,12.59
2023-04-18T13:30:18.158Z,12.64
2023-04-18T13:32:47.394Z,12.36
2023-04-18T13:35:15.196Z,12.26
2023-04-18T13:37:43.425Z,12.28
2023-04-18T13:40:11.964Z,12.51
2023-04-18T13:42:39.818Z,12.66
2023-04-18T13:45:08.353Z,12.52
2023-04-18T13:47:36.627Z,12.56
2023-04-18T13:50:06.534Z,12.47
2023-04-18T13:52:34.454Z,12.14
2023-04-18T13:55:02.215Z,12.05
2023-04-18T13:57:32.040Z,12.12
2023-04-18T14:00:00.035Z,11.99
2023-04-18T14:02:28.264Z,11.95
2023-04-18T14:04:58.245Z,12.07
2023-04-18T14:07:27.691Z,12.10
2023-04-18T14:09:55.492Z,12.15
2023-04-18T14:12:23.327Z,12.09
2023-04-18T14:14:51.109Z,11.86
2023-04-18T14:17:18.972Z,11.85
2023-04-18T14:19:46.827Z,11.45
2023-04-18T14:22:14.651Z,11.40
2023-04-18T14:24:43.923Z,11.33
2023-04-18T14:27:11.925Z,11.43
2023-04-18T14:29:39.845Z,11.58
2023-04-18T14:32:08.031Z,11.71
2023-04-18T14:34:37.391Z,11.60
2023-04-18T14:37:06.685Z,11.43
2023-04-18T14:39:34.613Z,11.54
2023-04-18T14:42:03.932Z,11.62
2023-04-18T14:44:33.597Z,11.48
2023-04-18T14:47:01.694Z,11.36
2023-04-18T14:49:29.620Z,11.19
2023-04-18T14:51:57.498Z,11.19
2023-04-18T14:54:25.451Z,11.25
2023-04-18T14:56:57.600Z,11.22
2023-04-18T14:59:28.880Z,11.10
2023-04-18T15:01:56.717Z,11.01
2023-04-18T15:04:24.798Z,10.68
2023-04-18T15:06:52.842Z,10.85
2023-04-18T15:09:20.809Z,10.90
2023-04-18T15:11:48.654Z,10.96
2023-04-18T15:14:16.834Z,10.99
2023-04-18T15:16:49.820Z,10.94
2023-04-18T15:19:17.717Z,11.15
2023-04-18T15:21:45.574Z,11.30
2023-04-18T15:24:13.912Z,11.30
2023-04-18T15:26:44.338Z,11.18
2023-04-18T15:29:12.702Z,11.13
2023-04-18T15:31:40.853Z,10.88
2023-04-18T15:34:10.236Z,10.73
2023-04-18T15:36:38.486Z,10.59
2023-04-18T15:39:06.755Z,10.37
2023-04-18T15:41:36.888Z,10.19
2023-04-18T15:44:07.216Z,10.01
2023-04-18T15:46:36.139Z,9.84
2023-04-18T15:49:04.039Z,10.02
2023-04-18T15:51:33.314Z,10.14
2023-04-18T15:54:01.251Z,10.13
2023-04-18T15:56:31.160Z,10.28
2023-04-18T15:59:02.157Z,10.33
2023-04-18T16:01:30.272Z,10.44
2023-04-18T16:03:58.530Z,10.57
2023-04-18T16:06:26.522Z,10.74
2023-04-18T16:08:55.900Z,10.91
2023-04-18T16:11:26.069Z,10.93
2023-04-18T16:13:55.268Z,10.83
2023-04-18T16:16:23.230Z,11.43
2023-04-18T16:18:51.174Z,11.88
2023-04-18T16:21:18.976Z,12.04
2023-04-18T16:23:46.783Z,12.05
2023-04-18T16:26:15.986Z,12.30
2023-04-18T16:28:43.952Z,12.28
2023-04-18T16:31:11.847Z,12.64
2023-04-18T16:33:41.492Z,13.04
2023-04-18T16:36:10.774Z,13.41
2023-04-18T16:38:38.599Z,13.47
2023-04-18T16:41:06.899Z,13.74
2023-04-18T16:43:38.149Z,13.31
2023-04-18T16:46:06.595Z,13.51
2023-04-18T16:48:34.648Z,13.69
2023-04-18T16:51:02.602Z,13.82
2023-04-18T16:53:30.544Z,13.87
2023-04-18T16:55:59.115Z,13.70
2023-04-18T16:58:27.067Z,13.35
2023-04-18T17:00:56.271Z,12.94
2023-04-18T17:03:24.106Z,12.54
2023-04-18T17:05:52.204Z,12.20
2023-04-18T17:08:20.225Z,12.16
2023-04-18T17:10:48.398Z,11.76
2023-04-18T17:13:16.373Z,11.65
2023-04-18T17:15:44.226Z,11.54
2023-04-18T17:18:13.588Z,11.30
2023-04-18T17:20:41.482Z,10.93
2023-04-18T17:23:09.314Z,10.68
2023-04-18T17:25:37.331Z,10.55
2023-04-18T17:28:05.536Z,10.40
2023-04-18T17:30:33.354Z,10.32
2023-04-18T17:33:01.367Z,10.34
2023-04-18T17:35:30.616Z,10.13
2023-04-18T17:37:58.412Z,10.04
2023-04-18T17:40:26.729Z,9.98
2023-04-18T17:42:54.683Z,9.88
2023-04-18T17:45:22.471Z,9.86
2023-04-18T17:47:50.953Z,9.78
2023-04-18T17:50:19.158Z,9.65
2023-04-18T17:52:48.334Z,9.62
2023-04-18T17:55:16.723Z,9.60
2023-04-18T17:57:44.628Z,9.48
2023-04-18T18:00:14.617Z,9.37
2023-04-18T18:02:42.813Z,9.35
2023-04-18T18:05:13.481Z,9.26
2023-04-18T18:07:43.226Z,9.31
2023-04-18T18:10:14.034Z,9.34
2023-04-18T18:12:42.419Z,9.31
2023-04-18T18:15:13.430Z,9.28
2023-04-18T18:17:41.639Z,9.27
2023-04-18T18:20:10.814Z,9.28
2023-04-18T18:23:02.682Z,9.27
2023-04-18T18:25:32.669Z,9.40
2023-04-18T18:28:02.103Z,9.27
2023-04-18T18:30:33.980Z,9.27
2023-04-18T18:33:05.666Z,9.40
2023-04-18T18:35:34.911Z,9.45
2023-04-18T18:38:03.416Z,9.44
2023-04-18T18:40:33.476Z,9.44
2023-04-18T18:43:02.179Z,9.44
2023-04-18T18:45:30.465Z,9.46
2023-04-18T18:47:58.272Z,9.49
2023-04-18T18:50:26.395Z,9.55
2023-04-18T18:52:54.182Z,9.57
2023-04-18T18:55:22.190Z,9.51
2023-04-18T18:57:51.702Z,9.46
2023-04-18T19:00:19.562Z,9.41
2023-04-18T19:02:48.365Z,9.40
2023-04-18T19:05:17.392Z,9.49
2023-04-18T19:07:45.250Z,9.51
2023-04-18T19:10:13.123Z,9.48
2023-04-18T19:12:41.017Z,9.46
2023-04-18T19:15:11.475Z,9.50
2023-04-18T19:17:39.499Z,9.46
2023-04-18T19:20:09.137Z,9.43
2023-04-18T19:22:39.622Z,9.37
2023-04-18T19:25:08.941Z,9.42
2023-04-18T19:27:36.944Z,9.37
2023-04-18T19:30:05.331Z,9.45
2023-04-18T19:32:34.732Z,9.42
2023-04-18T19:35:04.052Z,9.54
2023-04-18T19:37:32.636Z,9.45
2023-04-18T19:40:00.781Z,9.43
2023-04-18T19:42:28.596Z,9.49
2023-04-18T19:44:57.263Z,9.49
2023-04-18T19:47:25.911Z,9.46
2023-04-18T19:49:55.174Z,9.49
2023-04-18T19:52:23.006Z,9.52
2023-04-18T19:54:50.889Z,9.50
2023-04-18T19:57:18.736Z,9.49
2023-04-18T19:59:46.616Z,9.50
2023-04-18T20:02:17.045Z,9.48
2023-04-18T20:04:45.132Z,9.48
2023-04-18T20:07:14.507Z,9.50
2023-04-18T20:09:42.369Z,9.43
2023-04-18T20:12:10.256Z,9.40
2023-04-18T20:14:38.067Z,9.38
2023-04-18T20:17:05.905Z,9.45
2023-04-18T20:19:33.793Z,9.47
2023-04-18T20:22:02.001Z,9.42
2023-04-18T20:24:32.132Z,9.38
2023-04-18T20:27:00.511Z,9.40
2023-04-18T20:29:28.784Z,9.34
2023-04-18T20:31:56.691Z,9.32
2023-04-18T20:34:24.531Z,9.39
2023-04-18T20:36:52.893Z,9.35
2023-04-18T20:39:20.814Z,9.31
2023-04-18T20:41:51.619Z,9.26
2023-04-18T20:44:20.992Z,9.24
2023-04-18T20:46:48.921Z,9.22
2023-04-18T20:49:16.949Z,9.13
2023-04-18T20:51:44.862Z,9.17
2023-04-18T20:54:12.869Z,9.22
2023-04-18T20:56:40.933Z,9.26
2023-04-18T20:59:10.233Z,9.30
2023-04-18T21:01:38.070Z,9.32
2023-04-18T21:04:06.241Z,9.25
2023-04-18T21:06:34.180Z,9.20
2023-04-18T21:09:02.218Z,9.26
2023-04-18T21:11:30.122Z,9.19
2023-04-18T21:13:58.174Z,9.22
2023-04-18T21:16:28.551Z,9.21
2023-04-18T21:18:56.455Z,9.25
2023-04-18T21:21:24.244Z,9.30
2023-04-18T21:23:52.134Z,9.28
2023-04-18T21:26:20.088Z,9.22
2023-04-18T21:28:58.229Z,9.12
2023-04-18T21:31:29.831Z,9.16
2023-04-18T21:33:59.176Z,9.15
2023-04-18T21:36:28.022Z,9.20
2023-04-18T21:38:57.075Z,9.23
2023-04-18T21:41:25.805Z,9.19
2023-04-18T21:43:54.340Z,9.13
2023-04-18T21:46:22.304Z,9.08
2023-04-18T21:48:51.592Z,9.11
2023-04-18T21:51:19.489Z,9.10
2023-04-18T21:53:47.402Z,9.06
2023-04-18T21:56:15.311Z,8.97
2023-04-18T21:58:43.218Z,8.99
2023-04-18T22:01:11.238Z,8.96
2023-04-18T22:03:39.359Z,8.97
2023-04-18T22:06:08.628Z,8.89
2023-04-18T22:08:36.634Z,8.95
2023-04-18T22:11:04.739Z,8.82
2023-04-18T22:13:33.746Z,8.83
2023-04-18T22:16:03.643Z,8.81
2023-04-18T22:18:34.506Z,8.85
2023-04-18T22:21:03.309Z,8.93
2023-04-18T22:23:32.709Z,8.87
2023-04-18T22:26:00.741Z,8.88
2023-04-18T22:28:28.885Z,8.88
2023-04-18T22:30:57.002Z,8.85
2023-04-18T22:33:24.971Z,8.90
2023-04-18T22:35:53.450Z,8.95
2023-04-18T22:38:21.357Z,8.91
2023-04-18T22:40:50.586Z,8.88
2023-04-18T22:43:22.646Z,8.91
2023-04-18T22:45:51.264Z,8.94
2023-04-18T22:48:19.747Z,8.93
2023-04-18T22:50:47.604Z,8.92
2023-04-18T22:53:15.506Z,8.95
2023-04-18T22:55:45.763Z,8.86
2023-04-18T22:58:17.027Z,8.88
2023-04-18T23:00:44.844Z,10.20
2023-04-18T23:03:12.794Z,11.85
2023-04-18T23:05:41.909Z,12.07
2023-04-18T23:08:11.806Z,12.95
2023-04-18T23:10:39.758Z,12.48
2023-04-18T23:13:07.732Z,11.59
2023-04-18T23:15:36.926Z,10.53
2023-04-18T23:18:04.988Z,10.10
2023-04-18T23:20:33.094Z,9.74
2023-04-18T23:23:01.076Z,9.49
2023-04-18T23:25:29.133Z,9.42
2023-04-18T23:27:57.045Z,9.34
2023-04-18T23:30:26.152Z,9.22
2023-04-18T23:32:55.376Z,9.20
2023-04-18T23:35:24.472Z,9.21
2023-04-18T23:37:52.297Z,9.16
2023-04-18T23:40:20.855Z,9.07
2023-04-18T23:42:48.705Z,9.07
2023-04-18T23:45:16.608Z,9.09
2023-04-18T23:47:44.660Z,9.01
2023-04-18T23:50:14.307Z,8.89
2023-04-18T23:52:42.201Z,8.95
2023-04-18T23:55:10.564Z,8.94
2023-04-18T23:57:38.555Z,8.99
